sensor_id;sensor_type;location;lat;lon;timestamp;P1;durP1;ratioP1;P2;durP2;ratioP2
35225;SDS011;21813;49.686;21.766;2022-07-23T00:01:43;13.52;;;8.35;;
35225;SDS011;21813;49.686;21.766;2022-07-23T00:04:36;20.48;;;8.65;;
35225;SDS011;21813;49.686;21.766;2022-07-23T00:07:17;20.35;;;9.50;;
35225;SDS011;21813;49.686;21.766;2022-07-23T00:16:35;17.08;;;9.65;;
35225;SDS011;21813;49.686;21.766;2022-07-23T00:19:10;21.08;;;10.43;;
35225;SDS011;21813;49.686;21.766;2022-07-23T00:22:26;18.02;;;10.73;;
35225;SDS011;21813;49.686;21.766;2022-07-23T00:24:53;22.45;;;11.00;;
35225;SDS011;21813;49.686;21.766;2022-07-23T00:27:19;21.92;;;10.48;;
35225;SDS011;21813;49.686;21.766;2022-07-23T00:29:45;23.35;;;10.82;;
35225;SDS011;21813;49.686;21.766;2022-07-23T00:32:14;27.63;;;11.55;;
35225;SDS011;21813;49.686;21.766;2022-07-23T00:34:40;20.35;;;10.35;;
35225;SDS011;21813;49.686;21.766;2022-07-23T00:37:06;17.15;;;9.95;;
35225;SDS011;21813;49.686;21.766;2022-07-23T00:39:32;19.20;;;9.73;;
35225;SDS011;21813;49.686;21.766;2022-07-23T00:41:58;21.58;;;10.32;;
35225;SDS011;21813;49.686;21.766;2022-07-23T00:44:25;17.42;;;9.98;;
35225;SDS011;21813;49.686;21.766;2022-07-23T00:46:54;19.40;;;10.50;;
35225;SDS011;21813;49.686;21.766;2022-07-23T00:49:23;19.85;;;11.15;;
35225;SDS011;21813;49.686;21.766;2022-07-23T00:51:50;17.67;;;9.35;;
35225;SDS011;21813;49.686;21.766;2022-07-23T00:54:18;22.13;;;10.15;;
35225;SDS011;21813;49.686;21.766;2022-07-23T00:56:45;15.52;;;9.55;;
35225;SDS011;21813;49.686;21.766;2022-07-23T00:59:14;16.85;;;9.75;;
35225;SDS011;21813;49.686;21.766;2022-07-23T01:01:40;18.27;;;8.95;;
35225;SDS011;21813;49.686;21.766;2022-07-23T01:04:07;12.77;;;9.40;;
35225;SDS011;21813;49.686;21.766;2022-07-23T01:06:34;12.82;;;8.02;;
35225;SDS011;21813;49.686;21.766;2022-07-23T01:09:03;18.70;;;9.38;;
35225;SDS011;21813;49.686;21.766;2022-07-23T01:11:36;19.60;;;8.63;;
35225;SDS011;21813;49.686;21.766;2022-07-23T01:14:36;19.13;;;9.20;;
35225;SDS011;21813;49.686;21.766;2022-07-23T01:16:55;15.45;;;9.25;;
35225;SDS011;21813;49.686;21.766;2022-07-23T01:19:22;14.05;;;8.38;;
35225;SDS011;21813;49.686;21.766;2022-07-23T01:21:49;14.88;;;8.95;;
35225;SDS011;21813;49.686;21.766;2022-07-23T01:24:16;18.40;;;10.13;;
35225;SDS011;21813;49.686;21.766;2022-07-23T01:26:46;15.68;;;9.45;;
35225;SDS011;21813;49.686;21.766;2022-07-23T01:29:13;18.77;;;10.10;;
35225;SDS011;21813;49.686;21.766;2022-07-23T01:31:39;16.42;;;9.48;;
35225;SDS011;21813;49.686;21.766;2022-07-23T01:34:07;16.80;;;9.38;;
35225;SDS011;21813;49.686;21.766;2022-07-23T01:36:36;15.60;;;9.00;;
35225;SDS011;21813;49.686;21.766;2022-07-23T01:39:03;13.15;;;7.90;;
35225;SDS011;21813;49.686;21.766;2022-07-23T01:41:30;16.05;;;8.48;;
35225;SDS011;21813;49.686;21.766;2022-07-23T01:43:58;18.48;;;10.40;;
35225;SDS011;21813;49.686;21.766;2022-07-23T01:46:23;22.42;;;10.52;;
35225;SDS011;21813;49.686;21.766;2022-07-23T01:48:50;21.45;;;12.00;;
35225;SDS011;21813;49.686;21.766;2022-07-23T01:51:16;20.38;;;10.43;;
35225;SDS011;21813;49.686;21.766;2022-07-23T01:53:42;18.48;;;10.38;;
35225;SDS011;21813;49.686;21.766;2022-07-23T01:56:09;18.15;;;10.13;;
35225;SDS011;21813;49.686;21.766;2022-07-23T01:58:34;19.92;;;10.20;;
35225;SDS011;21813;49.686;21.766;2022-07-23T02:01:00;20.85;;;11.23;;
35225;SDS011;21813;49.686;21.766;2022-07-23T02:03:27;22.50;;;11.07;;
35225;SDS011;21813;49.686;21.766;2022-07-23T02:05:52;18.70;;;10.82;;
35225;SDS011;21813;49.686;21.766;2022-07-23T02:08:18;23.63;;;11.57;;
35225;SDS011;21813;49.686;21.766;2022-07-23T02:10:44;21.20;;;10.88;;
35225;SDS011;21813;49.686;21.766;2022-07-23T02:13:13;20.35;;;11.65;;
35225;SDS011;21813;49.686;21.766;2022-07-23T02:15:39;15.45;;;9.15;;
35225;SDS011;21813;49.686;21.766;2022-07-23T02:18:05;21.23;;;10.02;;
35225;SDS011;21813;49.686;21.766;2022-07-23T02:20:31;14.75;;;8.63;;
35225;SDS011;21813;49.686;21.766;2022-07-23T02:22:57;14.27;;;8.60;;
35225;SDS011;21813;49.686;21.766;2022-07-23T02:25:23;12.85;;;7.38;;
35225;SDS011;21813;49.686;21.766;2022-07-23T02:27:49;14.52;;;8.25;;
35225;SDS011;21813;49.686;21.766;2022-07-23T02:30:14;13.45;;;7.85;;
35225;SDS011;21813;49.686;21.766;2022-07-23T02:32:41;12.02;;;7.60;;
35225;SDS011;21813;49.686;21.766;2022-07-23T02:35:06;15.68;;;7.38;;
35225;SDS011;21813;49.686;21.766;2022-07-23T02:37:33;15.43;;;8.07;;
35225;SDS011;21813;49.686;21.766;2022-07-23T02:39:59;15.35;;;8.35;;
35225;SDS011;21813;49.686;21.766;2022-07-23T02:42:25;11.68;;;7.30;;
35225;SDS011;21813;49.686;21.766;2022-07-23T02:44:53;31.05;;;9.52;;
35225;SDS011;21813;49.686;21.766;2022-07-23T02:47:20;13.75;;;8.00;;
35225;SDS011;21813;49.686;21.766;2022-07-23T02:49:48;15.32;;;8.95;;
35225;SDS011;21813;49.686;21.766;2022-07-23T02:52:34;15.85;;;10.38;;
35225;SDS011;21813;49.686;21.766;2022-07-23T02:55:05;14.88;;;6.25;;
35225;SDS011;21813;49.686;21.766;2022-07-23T02:57:52;13.77;;;9.07;;
35225;SDS011;21813;49.686;21.766;2022-07-23T03:00:33;19.95;;;9.05;;
35225;SDS011;21813;49.686;21.766;2022-07-23T03:03:02;16.15;;;8.65;;
35225;SDS011;21813;49.686;21.766;2022-07-23T03:05:45;19.13;;;9.73;;
35225;SDS011;21813;49.686;21.766;2022-07-23T03:08:21;14.27;;;8.50;;
35225;SDS011;21813;49.686;21.766;2022-07-23T03:10:55;14.75;;;8.75;;
35225;SDS011;21813;49.686;21.766;2022-07-23T03:13:28;16.42;;;8.43;;
35225;SDS011;21813;49.686;21.766;2022-07-23T03:15:54;11.35;;;8.30;;
35225;SDS011;21813;49.686;21.766;2022-07-23T03:18:20;18.02;;;9.13;;
35225;SDS011;21813;49.686;21.766;2022-07-23T03:20:47;13.65;;;7.93;;
35225;SDS011;21813;49.686;21.766;2022-07-23T03:23:12;13.70;;;7.63;;
35225;SDS011;21813;49.686;21.766;2022-07-23T03:25:38;14.50;;;7.88;;
35225;SDS011;21813;49.686;21.766;2022-07-23T03:28:04;19.65;;;8.65;;
35225;SDS011;21813;49.686;21.766;2022-07-23T03:30:29;12.02;;;8.15;;
35225;SDS011;21813;49.686;21.766;2022-07-23T03:32:55;12.88;;;8.10;;
35225;SDS011;21813;49.686;21.766;2022-07-23T03:35:21;13.52;;;8.13;;
35225;SDS011;21813;49.686;21.766;2022-07-23T03:37:46;12.82;;;7.82;;
35225;SDS011;21813;49.686;21.766;2022-07-23T03:40:12;16.35;;;8.00;;
35225;SDS011;21813;49.686;21.766;2022-07-23T03:42:38;12.48;;;8.15;;
35225;SDS011;21813;49.686;21.766;2022-07-23T03:45:06;17.65;;;10.07;;
35225;SDS011;21813;49.686;21.766;2022-07-23T03:47:32;14.38;;;8.07;;
35225;SDS011;21813;49.686;21.766;2022-07-23T03:49:58;16.20;;;9.10;;
35225;SDS011;21813;49.686;21.766;2022-07-23T03:55:09;12.35;;;7.57;;
35225;SDS011;21813;49.686;21.766;2022-07-23T03:59:05;13.18;;;7.75;;
35225;SDS011;21813;49.686;21.766;2022-07-23T04:02:23;12.25;;;7.28;;
35225;SDS011;21813;49.686;21.766;2022-07-23T04:05:22;11.02;;;7.05;;
35225;SDS011;21813;49.686;21.766;2022-07-23T04:08:09;15.23;;;8.43;;
35225;SDS011;21813;49.686;21.766;2022-07-23T04:10:42;13.35;;;8.25;;
35225;SDS011;21813;49.686;21.766;2022-07-23T04:13:11;11.68;;;8.45;;
35225;SDS011;21813;49.686;21.766;2022-07-23T04:15:37;17.88;;;9.20;;
35225;SDS011;21813;49.686;21.766;2022-07-23T04:18:03;13.50;;;7.50;;
35225;SDS011;21813;49.686;21.766;2022-07-23T04:20:29;12.20;;;8.93;;
35225;SDS011;21813;49.686;21.766;2022-07-23T04:22:55;12.60;;;8.18;;
35225;SDS011;21813;49.686;21.766;2022-07-23T04:25:21;14.07;;;8.40;;
35225;SDS011;21813;49.686;21.766;2022-07-23T04:27:46;12.15;;;8.23;;
35225;SDS011;21813;49.686;21.766;2022-07-23T04:30:13;14.95;;;8.85;;
35225;SDS011;21813;49.686;21.766;2022-07-23T04:32:38;9.25;;;6.60;;
35225;SDS011;21813;49.686;21.766;2022-07-23T04:35:04;12.38;;;7.43;;
35225;SDS011;21813;49.686;21.766;2022-07-23T04:37:31;10.15;;;6.90;;
35225;SDS011;21813;49.686;21.766;2022-07-23T04:39:57;10.63;;;6.93;;
35225;SDS011;21813;49.686;21.766;2022-07-23T04:42:22;7.90;;;6.07;;
35225;SDS011;21813;49.686;21.766;2022-07-23T04:44:49;10.00;;;6.30;;
35225;SDS011;21813;49.686;21.766;2022-07-23T04:47:15;9.38;;;6.57;;
35225;SDS011;21813;49.686;21.766;2022-07-23T04:49:40;7.75;;;6.43;;
35225;SDS011;21813;49.686;21.766;2022-07-23T04:52:07;12.20;;;7.65;;
35225;SDS011;21813;49.686;21.766;2022-07-23T04:54:32;11.68;;;6.55;;
35225;SDS011;21813;49.686;21.766;2022-07-23T04:56:58;9.27;;;6.65;;
35225;SDS011;21813;49.686;21.766;2022-07-23T04:59:27;14.75;;;8.48;;
35225;SDS011;21813;49.686;21.766;2022-07-23T05:01:52;10.45;;;6.10;;
35225;SDS011;21813;49.686;21.766;2022-07-23T05:04:18;12.23;;;6.65;;
35225;SDS011;21813;49.686;21.766;2022-07-23T05:06:45;8.25;;;6.53;;
35225;SDS011;21813;49.686;21.766;2022-07-23T05:09:11;11.35;;;6.32;;
35225;SDS011;21813;49.686;21.766;2022-07-23T05:11:37;13.48;;;6.35;;
35225;SDS011;21813;49.686;21.766;2022-07-23T05:14:03;14.70;;;7.18;;
35225;SDS011;21813;49.686;21.766;2022-07-23T05:16:29;9.63;;;6.03;;
35225;SDS011;21813;49.686;21.766;2022-07-23T05:18:55;11.45;;;6.50;;
35225;SDS011;21813;49.686;21.766;2022-07-23T05:21:22;9.40;;;6.00;;
35225;SDS011;21813;49.686;21.766;2022-07-23T05:23:48;9.60;;;6.32;;
35225;SDS011;21813;49.686;21.766;2022-07-23T05:26:13;11.30;;;6.75;;
35225;SDS011;21813;49.686;21.766;2022-07-23T05:28:43;9.57;;;5.75;;
35225;SDS011;21813;49.686;21.766;2022-07-23T05:31:08;13.40;;;7.22;;
35225;SDS011;21813;49.686;21.766;2022-07-23T05:33:34;7.57;;;6.10;;
35225;SDS011;21813;49.686;21.766;2022-07-23T05:36:04;11.02;;;7.38;;
35225;SDS011;21813;49.686;21.766;2022-07-23T05:38:29;10.93;;;6.72;;
35225;SDS011;21813;49.686;21.766;2022-07-23T05:40:56;12.57;;;6.68;;
35225;SDS011;21813;49.686;21.766;2022-07-23T05:43:23;10.95;;;7.07;;
35225;SDS011;21813;49.686;21.766;2022-07-23T05:45:49;11.73;;;7.07;;
35225;SDS011;21813;49.686;21.766;2022-07-23T05:48:14;10.52;;;7.07;;
35225;SDS011;21813;49.686;21.766;2022-07-23T05:50:41;13.50;;;6.78;;
35225;SDS011;21813;49.686;21.766;2022-07-23T05:53:07;10.35;;;6.82;;
35225;SDS011;21813;49.686;21.766;2022-07-23T05:55:33;8.65;;;6.57;;
35225;SDS011;21813;49.686;21.766;2022-07-23T05:58:00;11.63;;;7.43;;
35225;SDS011;21813;49.686;21.766;2022-07-23T06:00:26;11.82;;;6.55;;
35225;SDS011;21813;49.686;21.766;2022-07-23T06:02:52;11.32;;;6.85;;
35225;SDS011;21813;49.686;21.766;2022-07-23T06:05:18;12.18;;;7.50;;
35225;SDS011;21813;49.686;21.766;2022-07-23T06:07:44;11.32;;;6.13;;
35225;SDS011;21813;49.686;21.766;2022-07-23T06:10:09;8.25;;;6.65;;
35225;SDS011;21813;49.686;21.766;2022-07-23T06:12:37;9.27;;;6.35;;
35225;SDS011;21813;49.686;21.766;2022-07-23T06:15:03;11.55;;;6.90;;
35225;SDS011;21813;49.686;21.766;2022-07-23T06:17:30;8.38;;;5.93;;
35225;SDS011;21813;49.686;21.766;2022-07-23T06:19:56;10.68;;;6.80;;
35225;SDS011;21813;49.686;21.766;2022-07-23T06:22:22;9.13;;;6.50;;
35225;SDS011;21813;49.686;21.766;2022-07-23T06:24:48;10.50;;;6.20;;
35225;SDS011;21813;49.686;21.766;2022-07-23T06:27:18;10.02;;;6.38;;
35225;SDS011;21813;49.686;21.766;2022-07-23T06:29:44;9.98;;;6.13;;
35225;SDS011;21813;49.686;21.766;2022-07-23T06:32:09;11.15;;;6.45;;
35225;SDS011;21813;49.686;21.766;2022-07-23T06:34:37;11.13;;;6.43;;
35225;SDS011;21813;49.686;21.766;2022-07-23T06:37:02;11.40;;;5.82;;
35225;SDS011;21813;49.686;21.766;2022-07-23T06:39:28;8.70;;;6.47;;
35225;SDS011;21813;49.686;21.766;2022-07-23T06:41:55;9.07;;;6.40;;
35225;SDS011;21813;49.686;21.766;2022-07-23T06:44:20;13.50;;;7.18;;
35225;SDS011;21813;49.686;21.766;2022-07-23T06:46:46;10.18;;;6.57;;
35225;SDS011;21813;49.686;21.766;2022-07-23T06:49:12;9.98;;;6.20;;
35225;SDS011;21813;49.686;21.766;2022-07-23T06:51:40;10.35;;;6.75;;
35225;SDS011;21813;49.686;21.766;2022-07-23T06:54:13;13.52;;;6.63;;
35225;SDS011;21813;49.686;21.766;2022-07-23T07:00:35;10.70;;;6.40;;
35225;SDS011;21813;49.686;21.766;2022-07-23T07:03:53;11.20;;;6.88;;
35225;SDS011;21813;49.686;21.766;2022-07-23T07:06:43;9.48;;;6.57;;
35225;SDS011;21813;49.686;21.766;2022-07-23T07:09:11;11.73;;;7.43;;
35225;SDS011;21813;49.686;21.766;2022-07-23T07:12:00;10.50;;;6.95;;
35225;SDS011;21813;49.686;21.766;2022-07-23T07:14:28;9.75;;;6.78;;
35225;SDS011;21813;49.686;21.766;2022-07-23T07:17:49;8.68;;;6.75;;
35225;SDS011;21813;49.686;21.766;2022-07-23T07:20:33;11.20;;;7.40;;
35225;SDS011;21813;49.686;21.766;2022-07-23T07:25:50;13.30;;;6.72;;
35225;SDS011;21813;49.686;21.766;2022-07-23T07:28:16;11.60;;;7.63;;
35225;SDS011;21813;49.686;21.766;2022-07-23T07:30:41;11.30;;;6.80;;
35225;SDS011;21813;49.686;21.766;2022-07-23T07:33:07;12.02;;;7.22;;
35225;SDS011;21813;49.686;21.766;2022-07-23T07:41:03;10.30;;;7.15;;
35225;SDS011;21813;49.686;21.766;2022-07-23T07:43:28;11.80;;;7.25;;
35225;SDS011;21813;49.686;21.766;2022-07-23T07:45:56;13.38;;;7.50;;
35225;SDS011;21813;49.686;21.766;2022-07-23T07:48:22;11.63;;;7.65;;
35225;SDS011;21813;49.686;21.766;2022-07-23T07:50:47;12.95;;;7.80;;
35225;SDS011;21813;49.686;21.766;2022-07-23T07:53:13;11.30;;;6.97;;
35225;SDS011;21813;49.686;21.766;2022-07-23T07:55:39;12.52;;;8.43;;
35225;SDS011;21813;49.686;21.766;2022-07-23T07:58:11;8.15;;;7.20;;
35225;SDS011;21813;49.686;21.766;2022-07-23T08:00:39;14.23;;;7.80;;
35225;SDS011;21813;49.686;21.766;2022-07-23T08:03:04;16.40;;;8.07;;
35225;SDS011;21813;49.686;21.766;2022-07-23T08:05:30;10.68;;;8.40;;
35225;SDS011;21813;49.686;21.766;2022-07-23T08:07:57;12.27;;;7.75;;
35225;SDS011;21813;49.686;21.766;2022-07-23T08:10:23;12.93;;;8.80;;
35225;SDS011;21813;49.686;21.766;2022-07-23T08:12:51;12.95;;;8.18;;
35225;SDS011;21813;49.686;21.766;2022-07-23T08:15:20;17.02;;;8.30;;
35225;SDS011;21813;49.686;21.766;2022-07-23T08:17:47;12.88;;;7.97;;
35225;SDS011;21813;49.686;21.766;2022-07-23T08:20:20;11.18;;;7.30;;
35225;SDS011;21813;49.686;21.766;2022-07-23T08:29:14;11.07;;;7.32;;
35225;SDS011;21813;49.686;21.766;2022-07-23T08:31:40;15.02;;;8.43;;
35225;SDS011;21813;49.686;21.766;2022-07-23T08:34:05;15.23;;;8.38;;
35225;SDS011;21813;49.686;21.766;2022-07-23T08:36:31;9.10;;;7.68;;
35225;SDS011;21813;49.686;21.766;2022-07-23T08:39:00;12.13;;;8.20;;
35225;SDS011;21813;49.686;21.766;2022-07-23T08:41:31;10.50;;;7.68;;
35225;SDS011;21813;49.686;21.766;2022-07-23T08:48:43;9.77;;;7.20;;
35225;SDS011;21813;49.686;21.766;2022-07-23T08:54:52;14.70;;;7.68;;
35225;SDS011;21813;49.686;21.766;2022-07-23T08:57:55;14.20;;;8.63;;
35225;SDS011;21813;49.686;21.766;2022-07-23T09:00:36;13.25;;;8.02;;
35225;SDS011;21813;49.686;21.766;2022-07-23T09:03:02;11.00;;;8.07;;
35225;SDS011;21813;49.686;21.766;2022-07-23T09:05:40;10.18;;;7.93;;
35225;SDS011;21813;49.686;21.766;2022-07-23T09:08:38;9.68;;;8.07;;
35225;SDS011;21813;49.686;21.766;2022-07-23T09:11:15;10.65;;;7.65;;
35225;SDS011;21813;49.686;21.766;2022-07-23T09:16:15;13.98;;;8.63;;
35225;SDS011;21813;49.686;21.766;2022-07-23T09:18:55;10.45;;;8.05;;
35225;SDS011;21813;49.686;21.766;2022-07-23T09:21:36;10.20;;;7.30;;
35225;SDS011;21813;49.686;21.766;2022-07-23T09:29:41;11.85;;;8.25;;
35225;SDS011;21813;49.686;21.766;2022-07-23T09:32:25;16.13;;;8.45;;
35225;SDS011;21813;49.686;21.766;2022-07-23T09:34:59;9.60;;;8.45;;
35225;SDS011;21813;49.686;21.766;2022-07-23T09:37:25;9.63;;;8.63;;
35225;SDS011;21813;49.686;21.766;2022-07-23T09:39:54;10.45;;;8.27;;
35225;SDS011;21813;49.686;21.766;2022-07-23T09:42:38;10.68;;;8.40;;
35225;SDS011;21813;49.686;21.766;2022-07-23T09:45:04;10.68;;;9.25;;
35225;SDS011;21813;49.686;21.766;2022-07-23T09:47:37;11.18;;;7.85;;
35225;SDS011;21813;49.686;21.766;2022-07-23T09:50:04;12.90;;;8.73;;
35225;SDS011;21813;49.686;21.766;2022-07-23T09:52:44;11.48;;;8.98;;
35225;SDS011;21813;49.686;21.766;2022-07-23T09:55:13;13.98;;;7.35;;
35225;SDS011;21813;49.686;21.766;2022-07-23T09:57:42;17.67;;;9.63;;
35225;SDS011;21813;49.686;21.766;2022-07-23T10:00:16;11.38;;;7.85;;
35225;SDS011;21813;49.686;21.766;2022-07-23T10:02:41;10.63;;;7.97;;
35225;SDS011;21813;49.686;21.766;2022-07-23T10:07:39;9.60;;;7.70;;
35225;SDS011;21813;49.686;21.766;2022-07-23T10:10:05;15.68;;;7.65;;
35225;SDS011;21813;49.686;21.766;2022-07-23T10:12:35;12.77;;;7.25;;
35225;SDS011;21813;49.686;21.766;2022-07-23T10:15:03;8.60;;;7.70;;
35225;SDS011;21813;49.686;21.766;2022-07-23T10:17:35;12.88;;;8.07;;
35225;SDS011;21813;49.686;21.766;2022-07-23T10:20:02;8.07;;;7.28;;
35225;SDS011;21813;49.686;21.766;2022-07-23T10:22:40;16.50;;;8.60;;
35225;SDS011;21813;49.686;21.766;2022-07-23T10:25:18;10.57;;;8.10;;
35225;SDS011;21813;49.686;21.766;2022-07-23T10:39:13;10.52;;;7.57;;
35225;SDS011;21813;49.686;21.766;2022-07-23T10:41:44;9.65;;;6.70;;
35225;SDS011;21813;49.686;21.766;2022-07-23T10:44:12;10.00;;;7.65;;
35225;SDS011;21813;49.686;21.766;2022-07-23T10:46:58;10.88;;;6.72;;
35225;SDS011;21813;49.686;21.766;2022-07-23T10:49:48;8.70;;;6.53;;
35225;SDS011;21813;49.686;21.766;2022-07-23T10:54:42;11.75;;;7.30;;
35225;SDS011;21813;49.686;21.766;2022-07-23T10:57:23;9.23;;;7.63;;
35225;SDS011;21813;49.686;21.766;2022-07-23T11:02:36;11.23;;;8.02;;
35225;SDS011;21813;49.686;21.766;2022-07-23T11:05:05;7.82;;;7.03;;
35225;SDS011;21813;49.686;21.766;2022-07-23T11:07:32;10.88;;;7.70;;
35225;SDS011;21813;49.686;21.766;2022-07-23T11:09:59;13.63;;;8.02;;
35225;SDS011;21813;49.686;21.766;2022-07-23T11:15:13;12.18;;;6.93;;
35225;SDS011;21813;49.686;21.766;2022-07-23T11:20:16;9.15;;;7.03;;
35225;SDS011;21813;49.686;21.766;2022-07-23T11:25:10;16.30;;;7.75;;
35225;SDS011;21813;49.686;21.766;2022-07-23T11:30:06;13.65;;;7.20;;
35225;SDS011;21813;49.686;21.766;2022-07-23T11:32:33;9.25;;;7.57;;
35225;SDS011;21813;49.686;21.766;2022-07-23T11:35:20;8.35;;;7.55;;
35225;SDS011;21813;49.686;21.766;2022-07-23T11:37:47;9.48;;;8.07;;
35225;SDS011;21813;49.686;21.766;2022-07-23T11:40:15;11.88;;;7.70;;
35225;SDS011;21813;49.686;21.766;2022-07-23T11:42:55;13.02;;;7.40;;
35225;SDS011;21813;49.686;21.766;2022-07-23T11:45:24;10.07;;;7.85;;
35225;SDS011;21813;49.686;21.766;2022-07-23T11:47:54;11.30;;;8.55;;
35225;SDS011;21813;49.686;21.766;2022-07-23T11:50:22;10.32;;;8.10;;
35225;SDS011;21813;49.686;21.766;2022-07-23T11:52:49;9.73;;;7.40;;
35225;SDS011;21813;49.686;21.766;2022-07-23T11:55:15;11.68;;;7.63;;
35225;SDS011;21813;49.686;21.766;2022-07-23T11:57:42;10.85;;;7.35;;
35225;SDS011;21813;49.686;21.766;2022-07-23T12:00:12;9.90;;;7.05;;
35225;SDS011;21813;49.686;21.766;2022-07-23T12:02:43;8.65;;;7.75;;
35225;SDS011;21813;49.686;21.766;2022-07-23T12:05:13;21.55;;;8.50;;
35225;SDS011;21813;49.686;21.766;2022-07-23T12:07:44;9.68;;;7.70;;
35225;SDS011;21813;49.686;21.766;2022-07-23T12:12:46;11.20;;;7.82;;
35225;SDS011;21813;49.686;21.766;2022-07-23T12:15:19;10.45;;;7.28;;
35225;SDS011;21813;49.686;21.766;2022-07-23T12:17:49;10.15;;;7.93;;
35225;SDS011;21813;49.686;21.766;2022-07-23T12:20:22;11.25;;;7.78;;
35225;SDS011;21813;49.686;21.766;2022-07-23T12:22:50;9.82;;;7.85;;
35225;SDS011;21813;49.686;21.766;2022-07-23T12:25:18;7.95;;;7.07;;
35225;SDS011;21813;49.686;21.766;2022-07-23T12:27:46;9.02;;;8.13;;
35225;SDS011;21813;49.686;21.766;2022-07-23T12:32:49;9.45;;;7.95;;
35225;SDS011;21813;49.686;21.766;2022-07-23T12:35:18;14.23;;;8.38;;
35225;SDS011;21813;49.686;21.766;2022-07-23T12:37:45;15.57;;;9.40;;
35225;SDS011;21813;49.686;21.766;2022-07-23T12:40:22;7.95;;;7.13;;
35225;SDS011;21813;49.686;21.766;2022-07-23T12:43:06;13.02;;;8.23;;
35225;SDS011;21813;49.686;21.766;2022-07-23T12:45:47;12.32;;;8.23;;
35225;SDS011;21813;49.686;21.766;2022-07-23T12:48:26;11.27;;;8.45;;
35225;SDS011;21813;49.686;21.766;2022-07-23T12:51:01;10.55;;;8.52;;
35225;SDS011;21813;49.686;21.766;2022-07-23T12:53:44;10.30;;;7.30;;
35225;SDS011;21813;49.686;21.766;2022-07-23T12:56:15;10.32;;;7.22;;
35225;SDS011;21813;49.686;21.766;2022-07-23T12:58:56;8.43;;;7.55;;
35225;SDS011;21813;49.686;21.766;2022-07-23T13:01:38;9.68;;;7.80;;
35225;SDS011;21813;49.686;21.766;2022-07-23T13:04:09;8.43;;;7.40;;
35225;SDS011;21813;49.686;21.766;2022-07-23T13:09:10;10.60;;;7.13;;
35225;SDS011;21813;49.686;21.766;2022-07-23T13:11:44;9.07;;;7.55;;
35225;SDS011;21813;49.686;21.766;2022-07-23T13:14:20;8.17;;;7.33;;
35225;SDS011;21813;49.686;21.766;2022-07-23T13:16:50;9.90;;;7.05;;
35225;SDS011;21813;49.686;21.766;2022-07-23T13:19:17;9.80;;;7.97;;
35225;SDS011;21813;49.686;21.766;2022-07-23T13:21:44;8.48;;;6.70;;
35225;SDS011;21813;49.686;21.766;2022-07-23T13:24:10;10.18;;;7.80;;
35225;SDS011;21813;49.686;21.766;2022-07-23T13:26:37;10.25;;;8.05;;
35225;SDS011;21813;49.686;21.766;2022-07-23T13:29:05;9.82;;;7.35;;
35225;SDS011;21813;49.686;21.766;2022-07-23T13:31:31;10.98;;;7.53;;
35225;SDS011;21813;49.686;21.766;2022-07-23T13:33:56;10.43;;;7.60;;
35225;SDS011;21813;49.686;21.766;2022-07-23T13:36:22;11.13;;;7.55;;
35225;SDS011;21813;49.686;21.766;2022-07-23T13:38:48;9.95;;;7.15;;
35225;SDS011;21813;49.686;21.766;2022-07-23T13:41:13;9.13;;;7.53;;
35225;SDS011;21813;49.686;21.766;2022-07-23T13:43:42;8.00;;;7.18;;
35225;SDS011;21813;49.686;21.766;2022-07-23T13:46:08;8.75;;;6.95;;
35225;SDS011;21813;49.686;21.766;2022-07-23T13:48:33;8.85;;;7.70;;
35225;SDS011;21813;49.686;21.766;2022-07-23T13:51:00;8.02;;;7.22;;
35225;SDS011;21813;49.686;21.766;2022-07-23T13:53:26;9.20;;;6.50;;
35225;SDS011;21813;49.686;21.766;2022-07-23T13:55:52;12.32;;;7.40;;
35225;SDS011;21813;49.686;21.766;2022-07-23T13:58:19;8.98;;;7.10;;
35225;SDS011;21813;49.686;21.766;2022-07-23T14:00:46;8.32;;;7.18;;
35225;SDS011;21813;49.686;21.766;2022-07-23T14:03:13;9.68;;;8.02;;
35225;SDS011;21813;49.686;21.766;2022-07-23T14:05:39;12.48;;;7.82;;
35225;SDS011;21813;49.686;21.766;2022-07-23T14:08:06;8.57;;;7.57;;
35225;SDS011;21813;49.686;21.766;2022-07-23T14:10:32;12.40;;;7.80;;
35225;SDS011;21813;49.686;21.766;2022-07-23T14:12:57;9.73;;;7.70;;
35225;SDS011;21813;49.686;21.766;2022-07-23T14:15:27;12.07;;;7.47;;
35225;SDS011;21813;49.686;21.766;2022-07-23T14:20:20;8.35;;;7.50;;
35225;SDS011;21813;49.686;21.766;2022-07-23T14:22:49;10.18;;;7.65;;
35225;SDS011;21813;49.686;21.766;2022-07-23T14:25:20;8.70;;;7.80;;
35225;SDS011;21813;49.686;21.766;2022-07-23T14:27:47;13.43;;;7.43;;
35225;SDS011;21813;49.686;21.766;2022-07-23T14:30:13;12.90;;;8.20;;
35225;SDS011;21813;49.686;21.766;2022-07-23T14:32:40;12.13;;;7.85;;
35225;SDS011;21813;49.686;21.766;2022-07-23T14:35:07;10.07;;;7.53;;
35225;SDS011;21813;49.686;21.766;2022-07-23T14:37:33;10.02;;;8.05;;
35225;SDS011;21813;49.686;21.766;2022-07-23T14:39:59;8.63;;;7.70;;
35225;SDS011;21813;49.686;21.766;2022-07-23T14:42:28;9.68;;;7.57;;
35225;SDS011;21813;49.686;21.766;2022-07-23T20:59:02;12.68;;;7.93;;
35225;SDS011;21813;49.686;21.766;2022-07-23T22:47:31;12.55;;;9.18;;
35225;SDS011;21813;49.686;21.766;2022-07-23T22:49:57;14.93;;;9.00;;
35225;SDS011;21813;49.686;21.766;2022-07-23T22:52:23;15.65;;;9.70;;
35225;SDS011;21813;49.686;21.766;2022-07-23T22:54:49;12.73;;;9.93;;
35225;SDS011;21813;49.686;21.766;2022-07-23T22:57:17;10.60;;;9.38;;
35225;SDS011;21813;49.686;21.766;2022-07-23T22:59:43;13.15;;;9.68;;
35225;SDS011;21813;49.686;21.766;2022-07-23T23:02:09;12.88;;;9.88;;
35225;SDS011;21813;49.686;21.766;2022-07-23T23:15:36;12.60;;;9.60;;
35225;SDS011;21813;49.686;21.766;2022-07-23T23:18:01;12.55;;;9.70;;
35225;SDS011;21813;49.686;21.766;2022-07-23T23:20:27;12.05;;;9.90;;
35225;SDS011;21813;49.686;21.766;2022-07-23T23:22:53;15.00;;;10.02;;
35225;SDS011;21813;49.686;21.766;2022-07-23T23:25:19;12.05;;;9.93;;
